Granite Downs, Australia
Current Conditions -  °F | °C
As of 12:00 PM on Thursday 27 Nov 2014 (Local Time) from YCBP Reporting Station
Clear Clear  
Wind Chill: 86°   Ceiling: Unl
Heat Index: 86°   Visibility: NA
Dew Point: 28°   Wind: 15mph
Humidity: 12%   Direction: 80°E
Pressure: 30.06"   Gusts: 26mph
Location:  26.94°S, 133.49°E
Report Text: YCBP 270200Z AUTO 08013G23KT //// // NCD 30/M02 Q1018
Loading
Personal Weather Stations






























Interactive Weather Map New forecast layout! Learn more

10-Day Weather Forecast

Advertisements
Track Severe Weather on mobile